Time;durP1;ratioP1;P1;durP2;ratioP2;P2;SDS_P1;SDS_P2;PMS_P1;PMS_P2;Temp;Humidity;BMP_temperature;BMP_pressure;BME280_temperature;BME280_humidity;BME280_pressure;Samples;Min_cycle;Max_cycle;Signal;HPM_P1;HPM_P2
2023/09/21 00:01:57;;;;;;;4.55;1.58;;;;;;;19.42;66.22;100352.72;7394876;19;20041;-68
2023/09/21 00:04:25;;;;;;;3.58;1.60;;;;;;;19.44;65.60;100345.28;7394877;19;20054;-68
2023/09/21 00:06:53;;;;;;;5.43;1.92;;;;;;;19.44;65.85;100344.47;7393956;19;20358;-69
2023/09/21 00:09:22;;;;;;;4.88;1.90;;;;;;;19.34;66.17;100331.28;7392762;19;20019;-69
2023/09/21 00:11:51;;;;;;;4.18;1.80;;;;;;;19.37;65.99;100336.28;7394666;19;20417;-69
2023/09/21 00:14:18;;;;;;;5.03;1.70;;;;;;;19.33;66.11;100336.84;7395136;19;20014;-70
2023/09/21 00:16:46;;;;;;;2.65;1.40;;;;;;;19.36;65.95;100334.63;7393775;19;20022;-69
2023/09/21 00:19:14;;;;;;;3.90;1.88;;;;;;;19.36;65.87;100329.25;7392194;19;20010;-69
2023/09/21 00:21:45;;;;;;;3.80;1.80;;;;;;;19.34;65.82;100333.13;7394492;19;20356;-69
2023/09/21 00:24:13;;;;;;;4.50;1.70;;;;;;;19.33;65.88;100326.09;7392784;19;20018;-69
2023/09/21 00:26:41;;;;;;;5.20;1.90;;;;;;;19.31;66.37;100325.44;7393985;19;20580;-68
2023/09/21 00:29:08;;;;;;;5.35;1.83;;;;;;;19.28;66.21;100321.28;7390127;19;20074;-68
2023/09/21 00:31:36;;;;;;;4.68;1.85;;;;;;;19.30;66.49;100321.91;7393802;19;20019;-69
2023/09/21 00:34:05;;;;;;;4.57;1.88;;;;;;;19.26;65.82;100325.16;7393898;19;20039;-69
2023/09/21 00:36:33;;;;;;;3.40;1.65;;;;;;;19.23;66.30;100308.41;7391756;19;20024;-70
2023/09/21 00:39:01;;;;;;;3.70;1.67;;;;;;;19.22;66.23;100316.63;7391871;19;20021;-72
2023/09/21 00:41:32;;;;;;;5.28;1.77;;;;;;;19.21;66.34;100310.41;7393912;19;20093;-74
2023/09/21 00:44:07;;;;;;;7.13;1.88;;;;;;;19.22;66.24;100309.38;7393836;19;20503;-72
2023/09/21 00:46:38;;;;;;;5.40;1.77;;;;;;;19.25;66.28;100302.84;7392073;19;20028;-71
2023/09/21 00:49:06;;;;;;;3.58;1.80;;;;;;;19.27;66.36;100297.28;7390121;19;20124;-72
2023/09/21 00:51:34;;;;;;;3.30;1.70;;;;;;;19.26;66.04;100299.13;7391748;19;20025;-70
2023/09/21 00:54:09;;;;;;;4.90;1.70;;;;;;;19.21;65.97;100297.00;7393320;19;20035;-71
2023/09/21 00:56:38;;;;;;;4.25;1.60;;;;;;;19.15;66.44;100302.25;7391149;19;20036;-71
2023/09/21 00:59:06;;;;;;;4.20;1.35;;;;;;;19.16;66.33;100291.34;7391305;19;20023;-71
2023/09/21 01:01:33;;;;;;;5.43;1.85;;;;;;;19.16;66.09;100285.97;7392964;19;20022;-72
2023/09/21 01:04:06;;;;;;;3.60;1.75;;;;;;;19.17;66.21;100286.78;7391841;19;20022;-72
2023/09/21 01:06:34;;;;;;;6.55;2.08;;;;;;;19.15;66.39;100283.44;7393055;19;20021;-72
2023/09/21 01:09:04;;;;;;;4.18;1.70;;;;;;;19.13;66.34;100269.38;7389991;19;20057;-72
2023/09/21 01:11:36;;;;;;;5.95;1.85;;;;;;;19.13;65.97;100278.28;7393094;19;20033;-72
2023/09/21 01:14:04;;;;;;;4.20;1.80;;;;;;;19.13;65.97;100285.50;7392378;19;20026;-72
2023/09/21 01:16:32;;;;;;;5.93;1.70;;;;;;;19.13;66.14;100280.94;7392107;19;20036;-72
2023/09/21 01:19:00;;;;;;;3.65;1.88;;;;;;;19.14;65.83;100282.63;7390568;19;20086;-72
2023/09/21 01:21:35;;;;;;;3.97;1.58;;;;;;;19.19;65.91;100277.56;7391147;19;20591;-70
2023/09/21 01:24:04;;;;;;;3.75;1.88;;;;;;;19.11;66.11;100274.09;7390827;19;20025;-71
2023/09/21 01:26:32;;;;;;;3.78;1.70;;;;;;;19.11;66.65;100271.41;7392121;19;20471;-71
2023/09/21 01:29:01;;;;;;;3.72;1.98;;;;;;;19.02;66.79;100276.00;7390321;19;20038;-71
2023/09/21 01:31:29;;;;;;;2.92;1.55;;;;;;;18.96;67.11;100261.47;7392248;19;20014;-71
2023/09/21 01:34:00;;;;;;;3.40;1.58;;;;;;;18.95;66.95;100262.47;7392736;19;20085;-71
2023/09/21 01:36:28;;;;;;;2.75;1.58;;;;;;;18.93;67.14;100256.47;7392454;19;20362;-69
2023/09/21 01:38:56;;;;;;;4.10;1.75;;;;;;;18.97;66.70;100263.13;7390424;19;20018;-66
2023/09/21 01:41:23;;;;;;;4.85;1.80;;;;;;;18.96;66.71;100260.59;7391887;19;20474;-65
2023/09/21 01:43:51;;;;;;;3.33;1.58;;;;;;;18.91;67.19;100261.16;7391917;19;20098;-65
2023/09/21 01:46:22;;;;;;;4.70;1.98;;;;;;;18.94;66.98;100249.25;7391929;19;20074;-66
2023/09/21 01:48:51;;;;;;;4.18;1.98;;;;;;;18.89;67.27;100244.41;7390513;19;20033;-70
2023/09/21 01:51:20;;;;;;;4.35;1.88;;;;;;;18.90;67.02;100234.50;7390743;19;20022;-70
2023/09/21 01:53:48;;;;;;;5.63;1.90;;;;;;;18.90;67.06;100240.72;7392557;19;20369;-70
2023/09/21 01:56:16;;;;;;;3.45;1.77;;;;;;;18.87;67.14;100226.81;7389892;19;20050;-71
2023/09/21 01:58:44;;;;;;;4.32;2.10;;;;;;;18.83;67.38;100231.72;7389324;19;20030;-71
2023/09/21 02:01:16;;;;;;;5.10;1.80;;;;;;;18.85;66.89;100224.34;7391322;19;20015;-70
2023/09/21 02:03:44;;;;;;;2.97;1.58;;;;;;;18.88;66.62;100221.25;7389588;19;20082;-70
2023/09/21 02:06:12;;;;;;;6.72;1.80;;;;;;;18.83;66.79;100217.47;7389396;19;20074;-67
2023/09/21 02:08:40;;;;;;;3.80;1.60;;;;;;;18.90;66.88;100211.19;7389429;19;20024;-69
2023/09/21 02:11:09;;;;;;;5.97;2.20;;;;;;;18.90;66.57;100213.88;7389544;19;20022;-68
2023/09/21 02:13:38;;;;;;;5.93;1.80;;;;;;;18.92;66.45;100213.69;7391519;19;20019;-68
2023/09/21 02:16:06;;;;;;;4.95;2.10;;;;;;;18.95;66.24;100213.34;7397186;19;20018;-68
2023/09/21 02:18:34;;;;;;;6.13;2.05;;;;;;;18.98;66.28;100200.38;7395389;19;20515;-65
2023/09/21 02:21:07;;;;;;;4.10;1.70;;;;;;;18.96;66.12;100201.56;7398506;19;20029;-64
2023/09/21 02:23:37;;;;;;;4.90;1.60;;;;;;;18.93;66.55;100192.06;7398442;19;20014;-64
2023/09/21 02:26:05;;;;;;;4.13;1.90;;;;;;;18.93;66.50;100191.22;7398007;19;20126;-69
2023/09/21 02:28:32;;;;;;;4.03;1.70;;;;;;;18.86;66.65;100183.06;7396695;19;20031;-69
2023/09/21 02:31:11;;;;;;;4.32;1.80;;;;;;;18.89;66.33;100179.19;7398035;19;20015;-69
2023/09/21 02:33:42;;;;;;;5.47;2.00;;;;;;;18.82;66.85;100183.59;7398082;19;20042;-69
2023/09/21 02:36:19;;;;;;;3.10;1.80;;;;;;;18.87;66.26;100178.53;7396680;19;20490;-69
2023/09/21 02:38:48;;;;;;;5.30;2.03;;;;;;;18.69;66.58;100170.75;7394810;19;20030;-69
2023/09/21 02:41:15;;;;;;;4.13;1.50;;;;;;;18.74;66.68;100171.09;7397545;19;20018;-69
2023/09/21 02:43:45;;;;;;;2.50;1.48;;;;;;;18.81;66.63;100168.50;7397543;19;20022;-69
2023/09/21 02:46:13;;;;;;;6.63;2.20;;;;;;;18.84;66.47;100173.50;7397710;19;20035;-70
2023/09/21 02:48:40;;;;;;;4.03;1.80;;;;;;;18.82;66.01;100164.81;7394161;19;20051;-69
2023/09/21 02:51:09;;;;;;;2.40;1.60;;;;;;;18.83;66.27;100164.63;7396489;19;20022;-69
2023/09/21 02:53:36;;;;;;;4.68;1.70;;;;;;;18.87;66.01;100160.56;7397324;19;20014;-69
2023/09/21 02:56:07;;;;;;;3.70;1.70;;;;;;;18.85;66.42;100151.88;7396855;19;20022;-69
2023/09/21 02:58:35;;;;;;;4.85;1.95;;;;;;;18.85;66.33;100151.88;7394519;19;20351;-69
2023/09/21 03:01:03;;;;;;;4.18;2.00;;;;;;;18.84;66.45;100163.63;7396873;19;20035;-70
2023/09/21 03:03:30;;;;;;;5.65;1.88;;;;;;;18.85;66.35;100164.44;7397235;19;20031;-69
2023/09/21 03:05:58;;;;;;;3.70;1.80;;;;;;;18.84;66.16;100160.09;7395092;19;20028;-69
2023/09/21 03:08:26;;;;;;;6.13;1.92;;;;;;;18.73;66.71;100146.13;7395576;19;20038;-70
2023/09/21 03:10:54;;;;;;;5.97;2.10;;;;;;;18.74;66.79;100142.41;7397076;19;20018;-69
2023/09/21 03:13:22;;;;;;;5.28;2.20;;;;;;;18.74;nan;100146.94;7396508;19;20021;-69
2023/09/21 03:15:58;;;;;;;4.55;1.75;;;;;;;18.72;66.43;100147.13;7396191;19;20018;-69
2023/09/21 03:18:27;;;;;;;4.95;1.75;;;;;;;18.73;66.41;100138.06;7394112;19;20353;-69
2023/09/21 03:21:11;;;;;;;3.17;1.65;;;;;;;18.75;66.20;100135.19;7395988;19;20469;-67
2023/09/21 03:23:40;;;;;;;4.80;1.93;;;;;;;18.72;66.30;100139.06;7395787;19;20022;-66
2023/09/21 03:26:11;;;;;;;4.30;1.73;;;;;;;18.76;66.28;100136.84;7395725;19;20502;-68
2023/09/21 03:28:39;;;;;;;4.18;1.70;;;;;;;18.70;66.12;100129.53;7394196;19;20046;-67
2023/09/21 03:31:06;;;;;;;5.18;1.80;;;;;;;18.71;66.37;100126.69;7395956;19;20019;-66
2023/09/21 03:33:34;;;;;;;3.90;1.98;;;;;;;18.70;66.10;100129.53;7396498;19;20358;-68
2023/09/21 03:36:03;;;;;;;5.80;1.90;;;;;;;18.68;66.02;100127.00;7395980;19;20018;-68
2023/09/21 03:38:31;;;;;;;3.67;1.70;;;;;;;18.71;66.01;100123.16;7393678;19;20082;-67
2023/09/21 03:40:58;;;;;;;4.82;2.13;;;;;;;18.69;65.77;100125.16;7396099;19;20015;-67
2023/09/21 03:43:26;;;;;;;5.03;1.70;;;;;;;18.72;65.72;100111.41;7396546;19;20383;-68
2023/09/21 03:45:54;;;;;;;3.80;1.70;;;;;;;18.71;66.09;100109.75;7395282;19;20082;-68
2023/09/21 03:48:21;;;;;;;4.22;1.80;;;;;;;18.74;65.71;100112.91;7393966;19;20023;-68
2023/09/21 03:50:51;;;;;;;5.03;1.95;;;;;;;18.78;65.20;100110.69;7395587;19;20014;-76
2023/09/21 03:53:19;;;;;;;3.47;1.75;;;;;;;18.80;64.96;100108.66;7397442;19;20038;-77
2023/09/21 03:55:49;;;;;;;5.13;2.28;;;;;;;18.74;65.36;100102.19;7399133;19;20023;-77
2023/09/21 03:58:17;;;;;;;3.80;1.90;;;;;;;18.76;65.30;100091.25;7404422;19;20018;-77
2023/09/21 04:00:46;;;;;;;4.35;1.75;;;;;;;18.83;65.16;100107.47;7410608;19;20035;-77
2023/09/21 04:03:14;;;;;;;6.30;1.65;;;;;;;18.83;65.06;100107.47;7412105;19;20022;-77
2023/09/21 04:05:42;;;;;;;3.90;2.00;;;;;;;18.86;64.80;100102.56;7417579;19;20022;-77
2023/09/21 04:08:10;;;;;;;4.57;2.08;;;;;;;18.84;64.78;100106.44;7414161;19;20240;-77
2023/09/21 04:10:38;;;;;;;7.57;2.03;;;;;;;18.79;64.66;100098.94;7414769;19;20018;-76
2023/09/21 04:13:05;;;;;;;4.25;1.80;;;;;;;18.80;64.98;100097.91;7414828;19;20014;-76
2023/09/21 04:15:33;;;;;;;4.07;1.70;;;;;;;18.80;64.23;100100.59;7396748;19;20022;-78
2023/09/21 04:18:02;;;;;;;4.82;1.95;;;;;;;18.85;64.98;100094.69;7394655;19;20019;-78
2023/09/21 04:20:34;;;;;;;2.80;1.70;;;;;;;18.84;64.76;100088.50;7393934;19;20046;-77
2023/09/21 04:23:03;;;;;;;5.57;2.08;;;;;;;18.81;64.52;100090.69;7396893;19;20111;-77
2023/09/21 04:25:32;;;;;;;7.07;1.88;;;;;;;18.77;64.65;100089.41;7396674;19;20074;-72
2023/09/21 04:28:00;;;;;;;4.88;2.10;;;;;;;18.75;64.57;100082.38;7393632;19;20026;-74
2023/09/21 04:30:28;;;;;;;5.53;2.00;;;;;;;18.73;64.93;100086.25;7394121;19;20102;-74
2023/09/21 04:32:57;;;;;;;5.57;2.10;;;;;;;18.70;64.90;100070.50;7394698;19;20038;-73
2023/09/21 04:35:25;;;;;;;3.55;1.90;;;;;;;18.69;64.77;100077.69;7394452;19;20360;-75
2023/09/21 04:37:54;;;;;;;4.28;1.92;;;;;;;18.68;65.03;100075.22;7390880;19;20014;-75
2023/09/21 04:40:23;;;;;;;4.50;1.95;;;;;;;18.71;64.59;100074.88;7392518;19;20022;-75
2023/09/21 04:42:50;;;;;;;3.55;1.63;;;;;;;18.75;64.33;100068.97;7394534;19;20046;-75
2023/09/21 04:45:22;;;;;;;6.20;2.00;;;;;;;18.78;64.27;100077.69;7393430;19;20034;-75
2023/09/21 04:47:52;;;;;;;4.50;1.80;;;;;;;18.75;64.43;100066.28;7392534;19;20376;-73
2023/09/21 04:50:20;;;;;;;4.82;1.73;;;;;;;18.69;64.39;100083.06;7393597;19;20018;-74
2023/09/21 04:52:49;;;;;;;4.55;1.70;;;;;;;18.75;64.24;100076.19;7392455;19;20029;-74
2023/09/21 04:55:18;;;;;;;5.03;1.95;;;;;;;18.72;64.12;100074.69;7393384;19;20030;-72
2023/09/21 04:57:46;;;;;;;4.60;2.00;;;;;;;18.74;64.25;100067.31;7392582;19;20074;-72
2023/09/21 05:00:15;;;;;;;6.30;2.22;;;;;;;18.74;64.18;100072.66;7393171;19;20511;-72
2023/09/21 05:02:44;;;;;;;5.20;2.05;;;;;;;18.75;64.10;100076.19;7391764;19;20025;-72
2023/09/21 05:05:14;;;;;;;3.15;1.58;;;;;;;18.79;63.70;100073.97;7391002;19;20021;-70
2023/09/21 05:07:42;;;;;;;3.92;1.77;;;;;;;18.80;63.86;100070.25;7392006;19;20038;-70
2023/09/21 05:10:12;;;;;;;9.48;2.30;;;;;;;18.81;63.61;100074.59;7391661;19;20050;-72
2023/09/21 05:12:40;;;;;;;5.50;1.90;;;;;;;18.78;63.85;100069.63;7391724;19;20022;-71
2023/09/21 05:15:11;;;;;;;3.25;1.83;;;;;;;18.72;63.69;100071.19;7392031;19;20018;-68
2023/09/21 05:17:39;;;;;;;3.75;1.90;;;;;;;18.77;63.53;100070.63;7391269;19;20018;-69
2023/09/21 05:20:11;;;;;;;3.45;1.60;;;;;;;18.81;63.32;100069.25;7392402;19;20019;-69
2023/09/21 05:22:39;;;;;;;4.97;2.20;;;;;;;18.79;63.57;100069.44;7392659;19;20341;-71
2023/09/21 05:25:08;;;;;;;4.65;1.80;;;;;;;18.70;63.92;100066.00;7392486;19;20014;-71
2023/09/21 05:27:36;;;;;;;4.55;2.00;;;;;;;18.72;63.52;100063.13;7392288;19;20038;-70
2023/09/21 05:30:04;;;;;;;5.22;1.85;;;;;;;18.74;63.64;100064.63;7391964;19;20037;-70
2023/09/21 05:32:32;;;;;;;4.75;2.22;;;;;;;18.79;63.41;100071.28;7392253;19;20010;-70
2023/09/21 05:35:05;;;;;;;5.05;1.90;;;;;;;18.79;63.39;100065.91;7392166;19;20376;-68
2023/09/21 05:37:35;;;;;;;6.07;1.80;;;;;;;18.85;63.54;100063.34;7392647;19;20014;-69
2023/09/21 05:40:05;;;;;;;5.07;2.20;;;;;;;18.84;63.09;100061.66;7390498;19;20345;-69
2023/09/21 05:42:35;;;;;;;4.43;2.00;;;;;;;18.82;63.41;100061.03;7392292;19;20014;-70
2023/09/21 05:45:03;;;;;;;6.05;2.30;;;;;;;18.83;63.48;100057.31;7390732;19;20023;-70
2023/09/21 05:47:32;;;;;;;6.32;2.40;;;;;;;18.84;63.34;100055.47;7391782;19;20483;-70
2023/09/21 05:50:00;;;;;;;7.00;2.00;;;;;;;18.88;63.09;100059.44;7398510;19;20067;-71
2023/09/21 05:52:30;;;;;;;3.78;2.00;;;;;;;18.82;63.45;100060.19;7399672;19;20054;-69
2023/09/21 05:54:58;;;;;;;5.05;1.90;;;;;;;18.80;63.65;100055.00;7399583;19;20025;-67
2023/09/21 05:57:25;;;;;;;4.30;1.90;;;;;;;18.78;63.63;100048.16;7398190;19;20015;-68
2023/09/21 05:59:54;;;;;;;3.95;1.83;;;;;;;18.86;63.73;100048.06;7395870;19;20491;-69
2023/09/21 06:02:22;;;;;;;4.00;1.90;;;;;;;18.89;63.48;100045.88;7399328;19;20021;-69
2023/09/21 06:04:49;;;;;;;4.22;1.98;;;;;;;18.94;63.52;100048.81;7398644;19;20025;-70
2023/09/21 06:07:17;;;;;;;4.40;1.75;;;;;;;18.99;63.01;100042.88;7399162;19;20096;-68
2023/09/21 06:09:45;;;;;;;5.72;2.10;;;;;;;18.99;62.98;100038.34;7393868;19;20029;-68
2023/09/21 06:12:13;;;;;;;4.53;2.10;;;;;;;18.97;63.05;100042.25;7398649;19;20028;-69
2023/09/21 06:14:41;;;;;;;3.55;1.80;;;;;;;19.02;63.16;100037.16;7398434;19;20737;-66
2023/09/21 06:17:13;;;;;;;4.18;2.00;;;;;;;19.03;63.00;100036.13;7398427;19;20021;-66
2023/09/21 06:19:44;;;;;;;5.30;1.80;;;;;;;18.99;63.17;100037.50;7395082;19;20499;-66
2023/09/21 06:22:12;;;;;;;6.05;2.22;;;;;;;19.03;63.21;100037.97;7399328;19;20504;-65
2023/09/21 06:24:42;;;;;;;4.10;2.05;;;;;;;19.07;63.09;100034.72;7397770;19;20482;-66
2023/09/21 06:27:09;;;;;;;3.75;1.83;;;;;;;19.14;62.96;100035.66;7399151;19;20055;-66
2023/09/21 06:29:37;;;;;;;5.47;2.00;;;;;;;19.22;62.76;100042.78;7394149;19;20026;-66
2023/09/21 06:32:07;;;;;;;3.65;1.70;;;;;;;19.30;62.14;100031.94;7399358;19;20018;-66
2023/09/21 06:34:37;;;;;;;4.23;2.03;;;;;;;19.32;62.38;100023.72;7399370;19;20463;-65
2023/09/21 06:37:05;;;;;;;3.63;1.80;;;;;;;19.36;62.17;100038.41;7401039;19;20471;-65
2023/09/21 06:39:32;;;;;;;5.93;1.90;;;;;;;19.44;62.07;100030.25;7393994;19;20018;-65
2023/09/21 06:42:00;;;;;;;5.30;2.20;;;;;;;19.54;61.68;100027.28;7398815;19;20046;-65
2023/09/21 06:44:29;;;;;;;4.80;1.90;;;;;;;19.56;61.45;100025.22;7397422;19;20440;-65
2023/09/21 06:46:57;;;;;;;5.28;1.83;;;;;;;19.59;61.57;100030.22;7398566;19;20022;-65
2023/09/21 06:49:26;;;;;;;6.07;1.95;;;;;;;19.68;61.33;100027.25;7393185;19;20014;-65
2023/09/21 06:51:56;;;;;;;5.63;2.20;;;;;;;19.81;60.60;100029.25;7395657;19;20510;-65
2023/09/21 06:54:23;;;;;;;7.05;2.00;;;;;;;19.81;61.04;100025.75;7397013;19;20379;-65
2023/09/21 06:56:51;;;;;;;5.13;2.25;;;;;;;19.76;60.85;100022.78;7396768;19;20019;-65
2023/09/21 06:59:19;;;;;;;4.15;1.90;;;;;;;19.71;60.97;100028.72;7394680;19;20026;-65
2023/09/21 07:01:46;;;;;;;6.90;2.25;;;;;;;19.69;61.18;100026.25;7396552;19;20023;-66
2023/09/21 07:04:14;;;;;;;5.10;2.15;;;;;;;19.72;61.00;100019.63;7398644;19;20022;-66
2023/09/21 07:06:41;;;;;;;4.32;2.22;;;;;;;19.86;60.85;100015.25;7396722;19;20038;-66
2023/09/21 07:09:09;;;;;;;4.45;1.88;;;;;;;20.00;60.71;100021.59;7394576;19;20019;-66
2023/09/21 07:11:37;;;;;;;5.00;1.85;;;;;;;20.09;59.99;100013.19;7396214;19;20035;-66
2023/09/21 07:14:05;;;;;;;4.25;1.92;;;;;;;20.12;59.71;100011.97;7396905;19;20404;-66
2023/09/21 07:16:33;;;;;;;4.05;2.22;;;;;;;20.13;59.94;100016.31;7394761;19;20066;-66
2023/09/21 07:19:00;;;;;;;5.03;1.80;;;;;;;20.18;59.94;100008.50;7392367;19;20046;-64
2023/09/21 07:21:28;;;;;;;5.60;1.73;;;;;;;20.16;59.45;100000.63;7395939;19;20526;-66
2023/09/21 07:23:56;;;;;;;6.50;2.10;;;;;;;20.22;59.25;100009.75;7394887;19;20550;-66
2023/09/21 07:26:24;;;;;;;5.88;1.90;;;;;;;20.31;59.72;100000.53;7393223;19;20018;-66
2023/09/21 07:28:52;;;;;;;3.65;1.85;;;;;;;20.39;59.33;100005.78;7394320;19;20023;-66
2023/09/21 07:31:19;;;;;;;6.43;2.10;;;;;;;20.48;58.91;99997.56;7394179;19;20029;-66
2023/09/21 07:33:47;;;;;;;5.65;2.30;;;;;;;20.56;58.70;99994.75;7399354;19;20035;-66
2023/09/21 07:36:15;;;;;;;4.15;1.90;;;;;;;20.57;58.81;99994.56;7396082;19;20011;-66
2023/09/21 07:38:42;;;;;;;4.93;2.00;;;;;;;20.54;58.52;99999.50;7393619;19;20115;-66
2023/09/21 07:41:13;;;;;;;8.13;2.00;;;;;;;20.50;59.03;99995.53;7395409;19;20035;-66
2023/09/21 07:43:41;;;;;;;4.32;2.03;;;;;;;20.43;59.04;100009.75;7395848;19;20422;-66
2023/09/21 07:46:08;;;;;;;4.78;2.05;;;;;;;20.41;59.03;100002.88;7395745;19;20029;-66
2023/09/21 07:48:36;;;;;;;6.00;2.00;;;;;;;20.38;59.29;100008.69;7392237;19;20011;-66
2023/09/21 07:51:04;;;;;;;6.30;1.88;;;;;;;20.43;59.26;100007.06;7394585;19;20349;-64
2023/09/21 07:53:33;;;;;;;4.97;2.00;;;;;;;20.50;59.00;100015.22;7394995;19;20010;-64
2023/09/21 07:56:08;;;;;;;5.38;2.15;;;;;;;20.59;59.06;100019.41;7395292;19;20018;-63
2023/09/21 07:58:36;;;;;;;8.75;2.40;;;;;;;20.54;59.55;100015.66;7391673;19;20519;-63
2023/09/21 08:01:04;;;;;;;5.50;1.75;;;;;;;20.54;59.17;100024.53;7394876;19;20420;-63
2023/09/21 08:03:31;;;;;;;5.60;1.90;;;;;;;20.55;59.30;100020.00;7393132;19;20014;-64
2023/09/21 08:05:59;;;;;;;5.28;2.08;;;;;;;20.53;59.79;100028.28;7394975;19;20410;-64
2023/09/21 08:08:27;;;;;;;6.45;2.15;;;;;;;20.55;59.78;100014.63;7394080;19;20388;-63
2023/09/21 08:10:56;;;;;;;3.83;2.10;;;;;;;20.62;59.86;100010.94;7398277;19;20018;-64
2023/09/21 08:13:25;;;;;;;5.38;2.03;;;;;;;20.71;59.83;100016.16;7389184;19;20033;-64
2023/09/21 08:15:53;;;;;;;4.57;1.90;;;;;;;20.71;59.94;100018.84;7392395;19;20015;-64
2023/09/21 08:18:20;;;;;;;7.90;1.95;;;;;;;20.71;60.65;100019.69;7391463;19;20014;-64
2023/09/21 08:20:48;;;;;;;5.07;2.10;;;;;;;20.72;60.48;100012.44;7390870;19;20460;-64
2023/09/21 08:23:17;;;;;;;6.53;1.83;;;;;;;20.78;60.62;100019.72;7394132;19;20014;-64
2023/09/21 08:25:44;;;;;;;5.05;1.98;;;;;;;20.81;60.91;100009.41;7392294;19;20010;-65
2023/09/21 08:28:12;;;;;;;4.90;2.00;;;;;;;20.88;60.47;100009.44;7392807;19;20026;-65
2023/09/21 08:30:40;;;;;;;8.05;3.15;;;;;;;20.97;60.44;100004.72;7393906;19;20025;-65
2023/09/21 08:33:08;;;;;;;9.70;5.05;;;;;;;21.07;59.75;100010.59;7393651;19;20014;-64
2023/09/21 08:35:36;;;;;;;9.65;4.65;;;;;;;21.17;59.62;100013.72;7393510;19;20054;-65
2023/09/21 08:38:03;;;;;;;7.28;2.80;;;;;;;21.27;59.28;100010.66;7390876;19;20383;-65
2023/09/21 08:40:34;;;;;;;7.97;2.40;;;;;;;21.39;59.18;100009.09;7391895;19;20014;-65
2023/09/21 08:43:03;;;;;;;6.00;2.15;;;;;;;21.39;59.35;100012.59;7392311;19;20018;-65
2023/09/21 08:45:32;;;;;;;4.85;2.10;;;;;;;21.50;58.91;100010.38;7393076;19;20015;-65
2023/09/21 08:48:02;;;;;;;4.20;2.25;;;;;;;21.56;58.76;100012.22;7392807;19;20042;-65
2023/09/21 08:50:32;;;;;;;8.00;2.08;;;;;;;21.59;58.24;100007.28;7393384;19;20019;-65
2023/09/21 08:53:01;;;;;;;4.35;2.03;;;;;;;21.69;57.84;99996.09;7393279;19;20011;-66
2023/09/21 08:55:30;;;;;;;3.88;1.80;;;;;;;21.80;57.53;99992.00;7390241;19;20085;-66
2023/09/21 08:57:59;;;;;;;4.25;1.70;;;;;;;21.89;56.75;99994.25;7390386;19;20413;-66
2023/09/21 09:00:28;;;;;;;6.97;2.17;;;;;;;21.97;56.91;99993.22;7390424;19;20018;-66
2023/09/21 09:02:56;;;;;;;6.20;1.85;;;;;;;22.08;56.80;99997.19;7391199;19;20038;-65
2023/09/21 09:05:24;;;;;;;5.60;2.03;;;;;;;22.19;55.92;99998.47;7390887;19;20496;-66
2023/09/21 09:07:52;;;;;;;6.70;1.95;;;;;;;22.33;55.79;99989.34;7389127;19;20022;-66
2023/09/21 09:10:20;;;;;;;4.40;1.92;;;;;;;22.55;55.34;99998.88;7387583;19;20440;-66
2023/09/21 09:12:49;;;;;;;4.30;1.92;;;;;;;22.71;55.19;99997.59;7389566;19;20739;-66
2023/09/21 09:15:34;;;;;;;7.88;2.10;;;;;;;22.78;54.54;100000.25;7388439;19;20349;-66
2023/09/21 09:18:06;;;;;;;4.70;1.77;;;;;;;22.63;54.55;100000.53;7389580;19;20577;-66
2023/09/21 09:20:37;;;;;;;5.75;1.83;;;;;;;22.60;54.30;99999.06;7388415;19;20046;-66
2023/09/21 09:23:10;;;;;;;5.38;2.05;;;;;;;22.61;54.94;99999.88;7389462;19;20483;-66
2023/09/21 09:25:39;;;;;;;5.03;1.88;;;;;;;22.62;54.39;100005.06;7391629;19;20503;-66
2023/09/21 09:28:09;;;;;;;3.78;1.90;;;;;;;22.61;54.76;100006.13;7390536;19;20029;-66
2023/09/21 09:30:36;;;;;;;3.28;1.80;;;;;;;22.59;54.63;100004.69;7391600;19;20018;-65
2023/09/21 09:33:09;;;;;;;6.32;1.88;;;;;;;22.60;53.82;100003.63;7391558;19;20038;-66
2023/09/21 09:35:45;;;;;;;3.58;1.70;;;;;;;22.59;54.59;100000.13;7390011;19;20019;-65
2023/09/21 09:38:14;;;;;;;6.47;2.17;;;;;;;22.61;54.60;99995.31;7390422;19;20106;-65
2023/09/21 09:40:42;;;;;;;5.28;1.85;;;;;;;22.65;54.00;100000.31;7390288;19;20365;-65
2023/09/21 09:43:15;;;;;;;4.97;1.98;;;;;;;22.70;53.95;100001.31;7391273;19;20018;-66
2023/09/21 09:45:47;;;;;;;9.43;3.10;;;;;;;22.70;54.23;100000.50;7392401;19;20078;-66
2023/09/21 09:48:23;;;;;;;8.70;3.75;;;;;;;22.76;54.34;100000.47;7388893;19;20019;-66
2023/09/21 09:50:55;;;;;;;6.28;3.08;;;;;;;22.84;54.47;100002.94;7390376;19;20019;-65
2023/09/21 09:53:24;;;;;;;6.65;2.20;;;;;;;22.85;54.83;99992.97;7391247;19;20030;-66
2023/09/21 09:55:54;;;;;;;4.90;1.95;;;;;;;22.81;54.47;99999.84;7393565;19;20026;-65
2023/09/21 09:58:26;;;;;;;5.78;2.00;;;;;;;22.78;54.10;99995.72;7389834;19;20111;-65
2023/09/21 10:00:55;;;;;;;4.07;2.00;;;;;;;22.80;54.05;100009.81;7390593;19;20029;-65
2023/09/21 10:03:23;;;;;;;5.88;1.88;;;;;;;22.81;54.05;100005.25;7391519;19;20022;-65
2023/09/21 10:05:51;;;;;;;4.55;2.03;;;;;;;22.75;53.78;100011.50;7391237;19;20015;-65
2023/09/21 10:08:21;;;;;;;6.30;1.70;;;;;;;22.73;53.83;99998.19;7390460;19;20042;-66
2023/09/21 10:10:52;;;;;;;4.70;1.98;;;;;;;22.74;54.22;99996.31;7390889;19;20019;-66
2023/09/21 10:13:25;;;;;;;5.43;2.00;;;;;;;22.70;53.85;99995.91;7390959;19;20377;-66
2023/09/21 10:16:04;;;;;;;;;;;;;;;22.60;54.61;99990.13;7392827;19;20028;-66
2023/09/21 10:18:38;;;;;;;5.30;1.70;;;;;;;22.79;55.11;99993.84;7390925;19;19919;-66
2023/09/21 10:21:30;;;;;;;3.75;1.85;;;;;;;22.96;54.92;99978.03;7390065;19;20018;-66
2023/09/21 10:24:18;;;;;;;5.20;1.95;;;;;;;22.94;55.23;99978.25;7390414;19;20019;-66
2023/09/21 10:26:49;;;;;;;5.47;2.20;;;;;;;23.16;54.44;99975.25;7390951;19;20018;-66
2023/09/21 10:29:26;;;;;;;6.68;2.08;;;;;;;23.39;53.19;99975.56;7387238;19;20015;-65
2023/09/21 10:31:55;;;;;;;4.10;1.80;;;;;;;23.41;53.17;99970.75;7390436;19;20014;-66
2023/09/21 10:34:26;;;;;;;5.65;1.98;;;;;;;23.41;53.81;99965.34;7390373;19;20018;-65
2023/09/21 10:37:00;;;;;;;85.45;54.90;;;;;;;23.46;53.64;99965.53;7395805;19;20094;-65
2023/09/21 10:39:29;;;;;;;9.25;5.07;;;;;;;23.47;53.15;99961.78;7393529;19;20089;-65
2023/09/21 10:42:03;;;;;;;4.95;2.33;;;;;;;23.53;53.88;99954.69;7396755;19;20361;-65
2023/09/21 10:44:55;;;;;;;6.03;2.15;;;;;;;23.52;53.84;99961.97;7397353;19;20026;-65
2023/09/21 10:47:30;;;;;;;4.72;2.00;;;;;;;23.42;54.04;99952.66;7397430;19;20021;-66
2023/09/21 10:50:10;;;;;;;5.72;2.15;;;;;;;23.41;54.34;99959.13;7397479;19;20026;-65
2023/09/21 10:52:41;;;;;;;6.30;1.90;;;;;;;23.36;54.03;99948.97;7396863;19;20483;-65
2023/09/21 10:55:12;;;;;;;4.65;2.00;;;;;;;23.44;54.21;99956.81;7396149;19;20015;-65
2023/09/21 10:57:41;;;;;;;3.78;1.90;;;;;;;23.47;53.83;99953.69;7398094;19;20022;-65
2023/09/21 11:00:18;;;;;;;6.50;1.73;;;;;;;23.49;53.90;99950.75;7396530;19;20074;-65
2023/09/21 11:02:49;;;;;;;5.47;1.70;;;;;;;23.33;54.70;99950.22;7395461;19;20032;-65
2023/09/21 11:05:19;;;;;;;5.65;1.98;;;;;;;23.24;54.46;99945.31;7397098;19;20019;-66
2023/09/21 11:07:50;;;;;;;5.88;2.15;;;;;;;23.28;55.06;99946.53;7397322;19;20022;-65
2023/09/21 11:10:18;;;;;;;7.18;2.38;;;;;;;23.33;54.98;99947.53;7396018;19;20029;-65
2023/09/21 11:12:48;;;;;;;6.32;2.03;;;;;;;23.55;54.60;99947.19;7395441;19;20061;-65
2023/09/21 11:15:16;;;;;;;7.28;1.98;;;;;;;23.55;54.46;99937.22;7393415;19;20448;-65
2023/09/21 11:17:47;;;;;;;6.15;1.85;;;;;;;23.51;54.73;99946.81;7395258;19;20116;-65
2023/09/21 11:20:20;;;;;;;3.95;1.88;;;;;;;23.48;54.71;99951.81;7394675;19;20053;-65
2023/09/21 11:22:50;;;;;;;6.07;1.92;;;;;;;23.46;55.34;99959.28;7396780;19;20010;-65
2023/09/21 11:25:22;;;;;;;4.10;1.80;;;;;;;23.44;54.98;99953.28;7396776;19;20045;-65
2023/09/21 11:27:50;;;;;;;6.32;2.05;;;;;;;23.49;54.96;99958.88;7395489;19;20057;-67
2023/09/21 11:30:18;;;;;;;5.05;2.30;;;;;;;23.50;55.36;99955.94;7395512;19;20020;-65
2023/09/21 11:32:49;;;;;;;7.25;2.20;;;;;;;23.47;55.10;99948.28;7396158;19;20030;-65
2023/09/21 11:35:19;;;;;;;3.28;1.90;;;;;;;23.48;54.68;99946.41;7395831;19;20042;-65
2023/09/21 11:37:49;;;;;;;6.65;2.10;;;;;;;23.55;54.70;99936.38;7392927;19;20354;-65